sensor_id;sensor_type;location;lat;lon;timestamp;pressure;altitude;pressure_sealevel;temperature;humidity
16100;BME280;8154;50.830;12.082;2023-04-26T00:00:45;99361.41;;;22.93;37.03
16100;BME280;8154;50.830;12.082;2023-04-26T00:03:11;99366.84;;;23.06;36.83
16100;BME280;8154;50.830;12.082;2023-04-26T00:05:40;99365.88;;;23.13;36.59
16100;BME280;8154;50.830;12.082;2023-04-26T00:08:07;99355.66;;;23.17;36.55
16100;BME280;8154;50.830;12.082;2023-04-26T00:10:34;99363.06;;;23.21;36.21
16100;BME280;8154;50.830;12.082;2023-04-26T00:13:00;99362.34;;;23.06;36.79
16100;BME280;8154;50.830;12.082;2023-04-26T00:15:26;99371.94;;;23.01;36.94
16100;BME280;8154;50.830;12.082;2023-04-26T00:17:52;99369.78;;;23.11;36.66
16100;BME280;8154;50.830;12.082;2023-04-26T00:20:18;99369.78;;;23.11;36.62
16100;BME280;8154;50.830;12.082;2023-04-26T00:22:44;99372.63;;;23.09;36.52
16100;BME280;8154;50.830;12.082;2023-04-26T00:25:11;99361.44;;;23.20;36.28
16100;BME280;8154;50.830;12.082;2023-04-26T00:27:37;99372.00;;;23.07;36.70
16100;BME280;8154;50.830;12.082;2023-04-26T00:30:03;99368.88;;;22.97;36.82
16100;BME280;8154;50.830;12.082;2023-04-26T00:32:30;99375.63;;;23.00;36.84
16100;BME280;8154;50.830;12.082;2023-04-26T00:34:56;99382.72;;;23.14;36.51
16100;BME280;8154;50.830;12.082;2023-04-26T00:37:22;99377.53;;;23.06;36.89
16100;BME280;8154;50.830;12.082;2023-04-26T00:39:49;99375.00;;;22.98;36.80
16100;BME280;8154;50.830;12.082;2023-04-26T00:42:15;99375.84;;;22.98;36.94
16100;BME280;8154;50.830;12.082;2023-04-26T00:44:41;99378.16;;;23.08;36.71
16100;BME280;8154;50.830;12.082;2023-04-26T00:47:07;99380.44;;;23.11;36.69
16100;BME280;8154;50.830;12.082;2023-04-26T00:49:34;99381.06;;;23.13;36.53
16100;BME280;8154;50.830;12.082;2023-04-26T00:52:01;99379.34;;;23.05;36.58
16100;BME280;8154;50.830;12.082;2023-04-26T00:54:27;99386.69;;;22.97;36.80
16100;BME280;8154;50.830;12.082;2023-04-26T00:56:54;99381.59;;;23.02;36.87
16100;BME280;8154;50.830;12.082;2023-04-26T00:59:20;99384.09;;;23.10;36.70
16100;BME280;8154;50.830;12.082;2023-04-26T01:01:46;99376.28;;;23.08;36.49
16100;BME280;8154;50.830;12.082;2023-04-26T01:04:14;99383.38;;;22.95;36.99
16100;BME280;8154;50.830;12.082;2023-04-26T01:06:40;99385.25;;;22.94;36.84
16100;BME280;8154;50.830;12.082;2023-04-26T01:09:06;99386.53;;;23.05;36.78
16100;BME280;8154;50.830;12.082;2023-04-26T01:11:35;99388.03;;;23.14;36.65
16100;BME280;8154;50.830;12.082;2023-04-26T01:14:02;99392.53;;;23.13;36.60
16100;BME280;8154;50.830;12.082;2023-04-26T01:16:30;99392.34;;;23.15;36.51
16100;BME280;8154;50.830;12.082;2023-04-26T01:18:56;99388.50;;;22.96;36.77
16100;BME280;8154;50.830;12.082;2023-04-26T01:21:23;99393.41;;;22.93;37.00
16100;BME280;8154;50.830;12.082;2023-04-26T01:23:50;99392.69;;;23.05;36.59
16100;BME280;8154;50.830;12.082;2023-04-26T01:26:17;99391.44;;;23.01;36.63
16100;BME280;8154;50.830;12.082;2023-04-26T01:28:44;99390.25;;;23.10;36.40
16100;BME280;8154;50.830;12.082;2023-04-26T01:31:14;99399.22;;;23.03;36.58
16100;BME280;8154;50.830;12.082;2023-04-26T01:33:41;99393.72;;;23.04;36.58
16100;BME280;8154;50.830;12.082;2023-04-26T01:36:10;99394.28;;;23.00;36.54
16100;BME280;8154;50.830;12.082;2023-04-26T03:13:39;99394.81;;;22.89;36.91
16100;BME280;8154;50.830;12.082;2023-04-26T03:16:05;99403.06;;;22.72;37.01
16100;BME280;8154;50.830;12.082;2023-04-26T03:18:31;99403.97;;;22.80;37.07
16100;BME280;8154;50.830;12.082;2023-04-26T03:20:58;99405.88;;;22.86;36.88
16100;BME280;8154;50.830;12.082;2023-04-26T03:23:24;99406.56;;;22.94;36.65
16100;BME280;8154;50.830;12.082;2023-04-26T03:25:50;99405.09;;;22.92;36.79
16100;BME280;8154;50.830;12.082;2023-04-26T03:28:16;99407.75;;;22.92;36.94
16100;BME280;8154;50.830;12.082;2023-04-26T03:30:43;99413.34;;;22.97;36.77
16100;BME280;8154;50.830;12.082;2023-04-26T03:33:10;99408.09;;;22.82;37.10
16100;BME280;8154;50.830;12.082;2023-04-26T03:36:00;99416.19;;;22.74;37.31
16100;BME280;8154;50.830;12.082;2023-04-26T03:38:26;99418.16;;;22.87;36.86
16100;BME280;8154;50.830;12.082;2023-04-26T03:40:52;99421.72;;;22.94;36.70
16100;BME280;8154;50.830;12.082;2023-04-26T03:43:18;99413.59;;;23.02;36.55
16100;BME280;8154;50.830;12.082;2023-04-26T03:46:07;99423.81;;;22.98;36.77
16100;BME280;8154;50.830;12.082;2023-04-26T03:48:33;99420.59;;;22.82;37.09
16100;BME280;8154;50.830;12.082;2023-04-26T03:51:01;99431.00;;;22.77;36.98
16100;BME280;8154;50.830;12.082;2023-04-26T03:53:27;99429.47;;;22.89;36.71
16100;BME280;8154;50.830;12.082;2023-04-26T03:55:53;99429.25;;;22.90;36.78
16100;BME280;8154;50.830;12.082;2023-04-26T03:58:20;99431.38;;;22.73;37.19
16100;BME280;8154;50.830;12.082;2023-04-26T04:00:46;99425.50;;;22.57;37.38
16100;BME280;8154;50.830;12.082;2023-04-26T04:03:12;99420.28;;;22.70;37.10
16100;BME280;8154;50.830;12.082;2023-04-26T04:05:39;99428.81;;;22.87;36.92
16100;BME280;8154;50.830;12.082;2023-04-26T04:08:05;99430.88;;;22.85;37.04
16100;BME280;8154;50.830;12.082;2023-04-26T04:10:31;99427.44;;;22.91;36.87
16100;BME280;8154;50.830;12.082;2023-04-26T05:15:02;99480.03;;;22.61;37.78
16100;BME280;8154;50.830;12.082;2023-04-26T05:17:29;99480.03;;;22.61;37.79
16100;BME280;8154;50.830;12.082;2023-04-26T05:19:56;99484.78;;;22.65;37.62
16100;BME280;8154;50.830;12.082;2023-04-26T05:22:23;99484.78;;;22.65;37.67
16100;BME280;8154;50.830;12.082;2023-04-26T05:24:49;99485.63;;;22.66;37.71
16100;BME280;8154;50.830;12.082;2023-04-26T05:27:17;99495.06;;;22.68;37.64
16100;BME280;8154;50.830;12.082;2023-04-26T05:29:44;99498.56;;;22.69;37.96
16100;BME280;8154;50.830;12.082;2023-04-26T05:32:11;99493.66;;;22.72;37.90
16100;BME280;8154;50.830;12.082;2023-04-26T05:34:38;99494.50;;;22.73;37.79
16100;BME280;8154;50.830;12.082;2023-04-26T05:37:04;99495.78;;;22.77;37.77
16100;BME280;8154;50.830;12.082;2023-04-26T05:39:30;99507.25;;;22.77;37.67
16100;BME280;8154;50.830;12.082;2023-04-26T05:41:56;99505.59;;;22.77;37.92
16100;BME280;8154;50.830;12.082;2023-04-26T05:44:23;99498.44;;;22.77;37.93
16100;BME280;8154;50.830;12.082;2023-04-26T05:46:49;99506.88;;;22.81;37.79
16100;BME280;8154;50.830;12.082;2023-04-26T05:49:15;99503.22;;;22.82;37.84
16100;BME280;8154;50.830;12.082;2023-04-26T05:51:41;99513.88;;;22.82;38.11
16100;BME280;8154;50.830;12.082;2023-04-26T05:54:07;99512.00;;;22.82;38.13
16100;BME280;8154;50.830;12.082;2023-04-26T05:56:33;99508.34;;;22.83;37.91
16100;BME280;8154;50.830;12.082;2023-04-26T05:59:00;99510.19;;;22.83;37.91
16100;BME280;8154;50.830;12.082;2023-04-26T06:01:26;99515.50;;;22.83;38.16
16100;BME280;8154;50.830;12.082;2023-04-26T06:03:52;99510.81;;;22.85;38.03
16100;BME280;8154;50.830;12.082;2023-04-26T06:06:19;99503.63;;;22.85;38.40
16100;BME280;8154;50.830;12.082;2023-04-26T06:08:46;99509.16;;;22.84;38.13
16100;BME280;8154;50.830;12.082;2023-04-26T06:11:12;99511.19;;;22.82;38.30
16100;BME280;8154;50.830;12.082;2023-04-26T06:13:37;99516.16;;;22.85;38.36
16100;BME280;8154;50.830;12.082;2023-04-26T06:16:04;99505.31;;;22.86;38.30
16100;BME280;8154;50.830;12.082;2023-04-26T06:18:39;99511.06;;;22.90;38.29
16100;BME280;8154;50.830;12.082;2023-04-26T06:21:06;99508.00;;;22.93;38.25
16100;BME280;8154;50.830;12.082;2023-04-26T06:23:32;99512.53;;;22.92;38.48
16100;BME280;8154;50.830;12.082;2023-04-26T06:25:58;99516.00;;;22.93;38.36
16100;BME280;8154;50.830;12.082;2023-04-26T06:28:25;99508.00;;;22.93;38.30
16100;BME280;8154;50.830;12.082;2023-04-26T06:30:51;99509.69;;;22.94;38.43
16100;BME280;8154;50.830;12.082;2023-04-26T06:33:18;99510.31;;;22.96;38.63
16100;BME280;8154;50.830;12.082;2023-04-26T06:35:44;99513.28;;;23.07;38.46
16100;BME280;8154;50.830;12.082;2023-04-26T06:38:11;99510.53;;;23.01;38.62
16100;BME280;8154;50.830;12.082;2023-04-26T06:40:37;99512.97;;;22.96;38.66
16100;BME280;8154;50.830;12.082;2023-04-26T06:43:03;99513.22;;;23.01;38.72
16100;BME280;8154;50.830;12.082;2023-04-26T06:45:30;99514.69;;;23.03;38.74
16100;BME280;8154;50.830;12.082;2023-04-26T06:47:57;99519.38;;;23.01;38.71
16100;BME280;8154;50.830;12.082;2023-04-26T06:50:25;99522.63;;;22.97;38.79
16100;BME280;8154;50.830;12.082;2023-04-26T06:52:52;99519.56;;;23.00;38.64
16100;BME280;8154;50.830;12.082;2023-04-26T06:55:18;99529.84;;;23.03;38.66
16100;BME280;8154;50.830;12.082;2023-04-26T06:57:45;99537.47;;;23.06;38.75
16100;BME280;8154;50.830;12.082;2023-04-26T07:00:11;99524.13;;;23.06;38.70
16100;BME280;8154;50.830;12.082;2023-04-26T07:02:39;99529.47;;;23.06;38.74
16100;BME280;8154;50.830;12.082;2023-04-26T07:05:06;99522.13;;;23.08;38.72
16100;BME280;8154;50.830;12.082;2023-04-26T07:07:32;99518.22;;;23.10;38.63
16100;BME280;8154;50.830;12.082;2023-04-26T07:09:58;99516.84;;;23.14;38.81
16100;BME280;8154;50.830;12.082;2023-04-26T07:12:25;99518.47;;;23.15;38.68
16100;BME280;8154;50.830;12.082;2023-04-26T08:16:45;99539.00;;;23.36;37.91
16100;BME280;8154;50.830;12.082;2023-04-26T08:19:11;99538.63;;;23.39;38.12
16100;BME280;8154;50.830;12.082;2023-04-26T08:21:37;99534.28;;;23.38;38.16
16100;BME280;8154;50.830;12.082;2023-04-26T08:24:04;99534.28;;;23.38;38.16
16100;BME280;8154;50.830;12.082;2023-04-26T08:26:30;99537.97;;;23.37;38.25
16100;BME280;8154;50.830;12.082;2023-04-26T08:28:56;99537.97;;;23.37;37.88
16100;BME280;8154;50.830;12.082;2023-04-26T08:31:22;99538.19;;;23.35;38.01
16100;BME280;8154;50.830;12.082;2023-04-26T08:33:49;99537.97;;;23.37;37.90
16100;BME280;8154;50.830;12.082;2023-04-26T08:36:15;99543.31;;;23.37;38.01
16100;BME280;8154;50.830;12.082;2023-04-26T08:38:41;99543.13;;;23.38;38.07
16100;BME280;8154;50.830;12.082;2023-04-26T08:41:11;99551.13;;;23.38;37.83
16100;BME280;8154;50.830;12.082;2023-04-26T08:43:42;99544.72;;;23.33;38.07
16100;BME280;8154;50.830;12.082;2023-04-26T08:46:11;99543.91;;;23.32;38.25
16100;BME280;8154;50.830;12.082;2023-04-26T08:48:41;99538.19;;;23.35;37.92
16100;BME280;8154;50.830;12.082;2023-04-26T08:51:08;99543.69;;;23.34;38.01
16100;BME280;8154;50.830;12.082;2023-04-26T08:53:37;99551.50;;;23.35;38.00
16100;BME280;8154;50.830;12.082;2023-04-26T08:56:03;99542.69;;;23.35;38.00
16100;BME280;8154;50.830;12.082;2023-04-26T08:58:31;99548.84;;;23.35;37.87
16100;BME280;8154;50.830;12.082;2023-04-26T09:00:57;99556.66;;;23.37;38.06
16100;BME280;8154;50.830;12.082;2023-04-26T09:03:24;99551.97;;;23.39;38.13
16100;BME280;8154;50.830;12.082;2023-04-26T09:05:51;99545.53;;;23.33;37.84
16100;BME280;8154;50.830;12.082;2023-04-26T09:08:18;99547.81;;;23.36;37.89
16100;BME280;8154;50.830;12.082;2023-04-26T09:10:46;99550.28;;;23.38;37.98
16100;BME280;8154;50.830;12.082;2023-04-26T09:13:13;99551.31;;;23.37;37.96
16100;BME280;8154;50.830;12.082;2023-04-26T09:15:39;99543.31;;;23.37;37.93
16100;BME280;8154;50.830;12.082;2023-04-26T09:18:19;99535.31;;;23.37;37.91
16100;BME280;8154;50.830;12.082;2023-04-26T09:21:01;99533.22;;;23.32;38.16
16100;BME280;8154;50.830;12.082;2023-04-26T09:23:28;99532.00;;;23.35;37.78
16100;BME280;8154;50.830;12.082;2023-04-26T09:25:54;99539.59;;;23.31;37.74
16100;BME280;8154;50.830;12.082;2023-04-26T09:28:22;99544.09;;;23.31;38.05
16100;BME280;8154;50.830;12.082;2023-04-26T09:30:48;99536.66;;;23.26;37.97
16100;BME280;8154;50.830;12.082;2023-04-26T09:33:15;99546.13;;;23.29;38.11
16100;BME280;8154;50.830;12.082;2023-04-26T09:35:42;99543.06;;;23.32;37.68
16100;BME280;8154;50.830;12.082;2023-04-26T09:38:13;99556.41;;;23.32;37.72
16100;BME280;8154;50.830;12.082;2023-04-26T09:40:45;99544.09;;;23.31;37.85
16100;BME280;8154;50.830;12.082;2023-04-26T09:43:19;99542.25;;;23.31;37.73
16100;BME280;8154;50.830;12.082;2023-04-26T09:45:54;99546.94;;;23.29;38.14
16100;BME280;8154;50.830;12.082;2023-04-26T09:48:25;99543.84;;;23.26;38.01
16100;BME280;8154;50.830;12.082;2023-04-26T09:50:55;99544.88;;;23.25;38.11
16100;BME280;8154;50.830;12.082;2023-04-26T09:53:32;99539.34;;;23.26;37.85
16100;BME280;8154;50.830;12.082;2023-04-26T09:56:10;99533.81;;;23.28;37.99
16100;BME280;8154;50.830;12.082;2023-04-26T09:58:39;99536.88;;;23.25;37.86
16100;BME280;8154;50.830;12.082;2023-04-26T10:01:09;99540.88;;;23.21;37.94
16100;BME280;8154;50.830;12.082;2023-04-26T10:03:36;99546.50;;;23.26;37.81
16100;BME280;8154;50.830;12.082;2023-04-26T10:06:04;99540.13;;;23.27;37.97
16100;BME280;8154;50.830;12.082;2023-04-26T10:08:31;99542.63;;;23.28;37.65
16100;BME280;8154;50.830;12.082;2023-04-26T10:11:00;99548.34;;;23.25;37.76
16100;BME280;8154;50.830;12.082;2023-04-26T10:13:32;99538.50;;;23.26;38.02
16100;BME280;8154;50.830;12.082;2023-04-26T12:19:05;99523.38;;;23.12;37.54
16100;BME280;8154;50.830;12.082;2023-04-26T12:21:40;99524.78;;;23.08;37.67
16100;BME280;8154;50.830;12.082;2023-04-26T12:24:24;99521.91;;;23.09;37.75
16100;BME280;8154;50.830;12.082;2023-04-26T12:26:50;99513.34;;;23.14;37.41
16100;BME280;8154;50.830;12.082;2023-04-26T12:29:17;99514.38;;;23.13;37.54
16100;BME280;8154;50.830;12.082;2023-04-26T12:31:44;99508.41;;;23.11;37.67
16100;BME280;8154;50.830;12.082;2023-04-26T12:34:11;99510.22;;;23.10;37.58
16100;BME280;8154;50.830;12.082;2023-04-26T12:36:39;99499.75;;;23.09;37.54
16100;BME280;8154;50.830;12.082;2023-04-26T12:39:09;99493.25;;;23.11;37.66
16100;BME280;8154;50.830;12.082;2023-04-26T12:41:36;99498.38;;;23.13;37.63
16100;BME280;8154;50.830;12.082;2023-04-26T12:44:02;99504.69;;;23.12;37.36
16100;BME280;8154;50.830;12.082;2023-04-26T12:46:28;99502.41;;;23.09;37.70
16100;BME280;8154;50.830;12.082;2023-04-26T12:48:54;99515.09;;;23.07;37.68
16100;BME280;8154;50.830;12.082;2023-04-26T12:51:20;99514.13;;;23.08;37.63
16100;BME280;8154;50.830;12.082;2023-04-26T12:53:47;99519.06;;;23.11;37.45
16100;BME280;8154;50.830;12.082;2023-04-26T12:56:13;99508.00;;;23.14;37.33
16100;BME280;8154;50.830;12.082;2023-04-26T12:58:41;99512.69;;;23.12;37.40
16100;BME280;8154;50.830;12.082;2023-04-26T13:01:06;99508.41;;;23.11;37.32
16100;BME280;8154;50.830;12.082;2023-04-26T13:03:35;99512.69;;;23.12;37.22
16100;BME280;8154;50.830;12.082;2023-04-26T13:06:01;99518.69;;;23.14;37.41
16100;BME280;8154;50.830;12.082;2023-04-26T13:08:27;99523.16;;;23.13;37.50
16100;BME280;8154;50.830;12.082;2023-04-26T13:10:54;99515.19;;;23.13;37.50
16100;BME280;8154;50.830;12.082;2023-04-26T13:13:21;99519.72;;;23.13;37.41
16100;BME280;8154;50.830;12.082;2023-04-26T13:15:47;99519.72;;;23.13;37.47
16100;BME280;8154;50.830;12.082;2023-04-26T13:18:14;99513.53;;;23.12;37.30
16100;BME280;8154;50.830;12.082;2023-04-26T13:20:41;99511.91;;;23.11;37.51
16100;BME280;8154;50.830;12.082;2023-04-26T13:23:07;99520.91;;;23.10;37.65
16100;BME280;8154;50.830;12.082;2023-04-26T13:25:35;99519.06;;;23.11;37.53
16100;BME280;8154;50.830;12.082;2023-04-26T13:28:02;99522.72;;;23.10;37.35
16100;BME280;8154;50.830;12.082;2023-04-26T13:30:28;99523.75;;;23.09;37.58
16100;BME280;8154;50.830;12.082;2023-04-26T13:32:54;99523.75;;;23.09;37.65
16100;BME280;8154;50.830;12.082;2023-04-26T13:35:21;99517.59;;;23.08;37.37
16100;BME280;8154;50.830;12.082;2023-04-26T13:37:48;99522.38;;;23.13;37.23
16100;BME280;8154;50.830;12.082;2023-04-26T13:40:14;99526.53;;;23.22;36.30
16100;BME280;8154;50.830;12.082;2023-04-26T13:42:41;99519.75;;;23.19;23.20
16100;BME280;8154;50.830;12.082;2023-04-26T13:45:08;99520.06;;;23.10;23.62
16100;BME280;8154;50.830;12.082;2023-04-26T13:47:37;99524.19;;;22.91;23.80
16100;BME280;8154;50.830;12.082;2023-04-26T13:50:19;99521.59;;;22.77;23.10
16100;BME280;8154;50.830;12.082;2023-04-26T13:52:45;99520.44;;;22.64;23.70
16100;BME280;8154;50.830;12.082;2023-04-26T13:55:11;99526.16;;;22.61;24.21
16100;BME280;8154;50.830;12.082;2023-04-26T13:57:38;99521.00;;;22.60;24.68
16100;BME280;8154;50.830;12.082;2023-04-26T14:00:05;99522.66;;;22.61;25.04
16100;BME280;8154;50.830;12.082;2023-04-26T14:02:32;99526.97;;;22.62;25.70
16100;BME280;8154;50.830;12.082;2023-04-26T14:04:59;99520.00;;;22.61;24.76
16100;BME280;8154;50.830;12.082;2023-04-26T14:07:25;99526.78;;;22.63;25.13
16100;BME280;8154;50.830;12.082;2023-04-26T14:09:51;99527.78;;;22.62;24.62
16100;BME280;8154;50.830;12.082;2023-04-26T14:12:19;99515.50;;;22.61;24.92
16100;BME280;8154;50.830;12.082;2023-04-26T14:14:46;99524.94;;;22.64;24.91
16100;BME280;8154;50.830;12.082;2023-04-26T14:17:41;99521.44;;;22.63;25.26
16100;BME280;8154;50.830;12.082;2023-04-26T14:20:14;99520.06;;;22.67;25.16
16100;BME280;8154;50.830;12.082;2023-04-26T14:22:40;99518.78;;;22.63;24.45
16100;BME280;8154;50.830;12.082;2023-04-26T14:25:23;99521.25;;;22.65;25.19
16100;BME280;8154;50.830;12.082;2023-04-26T14:27:52;99520.63;;;22.63;24.53
16100;BME280;8154;50.830;12.082;2023-04-26T14:30:24;99526.78;;;22.63;24.47
16100;BME280;8154;50.830;12.082;2023-04-26T14:32:51;99530.28;;;22.64;24.03
16100;BME280;8154;50.830;12.082;2023-04-26T14:35:38;99527.59;;;22.64;23.67
16100;BME280;8154;50.830;12.082;2023-04-26T14:38:05;99532.28;;;22.62;23.71
16100;BME280;8154;50.830;12.082;2023-04-26T14:40:31;99530.06;;;22.65;23.92
16100;BME280;8154;50.830;12.082;2023-04-26T14:42:58;99531.66;;;22.60;23.61
16100;BME280;8154;50.830;12.082;2023-04-26T14:45:24;99528.91;;;22.53;23.89
16100;BME280;8154;50.830;12.082;2023-04-26T14:47:50;99529.28;;;22.50;23.64
16100;BME280;8154;50.830;12.082;2023-04-26T14:50:17;99525.13;;;22.48;23.29
16100;BME280;8154;50.830;12.082;2023-04-26T14:52:45;99516.94;;;22.49;22.83
16100;BME280;8154;50.830;12.082;2023-04-26T14:55:18;99523.66;;;22.45;23.26
16100;BME280;8154;50.830;12.082;2023-04-26T14:57:49;99517.06;;;22.41;23.13
16100;BME280;8154;50.830;12.082;2023-04-26T15:00:15;99518.25;;;22.39;23.65
16100;BME280;8154;50.830;12.082;2023-04-26T15:02:43;99513.38;;;22.42;23.96
16100;BME280;8154;50.830;12.082;2023-04-26T15:05:10;99523.47;;;22.47;24.43
16100;BME280;8154;50.830;12.082;2023-04-26T15:07:39;99531.09;;;22.50;24.86
16100;BME280;8154;50.830;12.082;2023-04-26T15:10:06;99533.59;;;22.51;25.37
16100;BME280;8154;50.830;12.082;2023-04-26T15:12:36;99528.28;;;22.51;25.42
16100;BME280;8154;50.830;12.082;2023-04-26T15:15:03;99523.78;;;22.52;25.76
16100;BME280;8154;50.830;12.082;2023-04-26T15:17:53;99532.56;;;22.52;26.14
16100;BME280;8154;50.830;12.082;2023-04-26T15:20:19;99523.59;;;22.53;26.26
16100;BME280;8154;50.830;12.082;2023-04-26T15:22:45;99533.41;;;22.53;26.71
16100;BME280;8154;50.830;12.082;2023-04-26T15:25:11;99515.59;;;22.53;26.72
16100;BME280;8154;50.830;12.082;2023-04-26T15:27:38;99513.56;;;22.55;26.80
16100;BME280;8154;50.830;12.082;2023-04-26T15:30:09;99519.53;;;22.57;27.30
16100;BME280;8154;50.830;12.082;2023-04-26T15:32:35;99519.53;;;22.57;27.54
16100;BME280;8154;50.830;12.082;2023-04-26T15:35:05;99518.53;;;22.58;27.87
16100;BME280;8154;50.830;12.082;2023-04-26T15:37:35;99523.22;;;22.56;28.11
16100;BME280;8154;50.830;12.082;2023-04-26T15:40:03;99514.84;;;22.59;28.25
16100;BME280;8154;50.830;12.082;2023-04-26T15:42:31;99516.88;;;22.57;28.53
16100;BME280;8154;50.830;12.082;2023-04-26T15:44:57;99524.66;;;22.59;28.68
16100;BME280;8154;50.830;12.082;2023-04-26T15:47:24;99521.19;;;22.58;29.16
16100;BME280;8154;50.830;12.082;2023-04-26T15:49:50;99527.78;;;22.62;29.12
16100;BME280;8154;50.830;12.082;2023-04-26T15:52:16;99519.41;;;22.65;29.12
16100;BME280;8154;50.830;12.082;2023-04-26T15:54:43;99527.97;;;22.61;29.30
16100;BME280;8154;50.830;12.082;2023-04-26T15:57:10;99530.38;;;22.56;29.48
16100;BME280;8154;50.830;12.082;2023-04-26T15:59:36;99530.00;;;22.59;30.09
16100;BME280;8154;50.830;12.082;2023-04-26T16:02:02;99529.53;;;22.55;30.15
16100;BME280;8154;50.830;12.082;2023-04-26T16:04:59;99534.75;;;22.63;30.21
16100;BME280;8154;50.830;12.082;2023-04-26T16:07:25;99529.69;;;22.68;30.24
16100;BME280;8154;50.830;12.082;2023-04-26T16:09:51;99534.16;;;22.61;30.56
16100;BME280;8154;50.830;12.082;2023-04-26T16:12:27;99530.38;;;22.56;31.17
16100;BME280;8154;50.830;12.082;2023-04-26T16:14:53;99526.34;;;22.60;31.39
16100;BME280;8154;50.830;12.082;2023-04-26T16:17:19;99533.03;;;22.56;31.85
16100;BME280;8154;50.830;12.082;2023-04-26T18:20:31;99580.66;;;23.16;38.20
16100;BME280;8154;50.830;12.082;2023-04-26T18:23:00;99584.00;;;23.24;37.13
16100;BME280;8154;50.830;12.082;2023-04-26T18:25:27;99586.13;;;23.29;36.86
16100;BME280;8154;50.830;12.082;2023-04-26T18:27:54;99586.00;;;23.22;37.13
16100;BME280;8154;50.830;12.082;2023-04-26T18:30:24;99592.75;;;23.33;36.70
16100;BME280;8154;50.830;12.082;2023-04-26T18:32:51;99593.16;;;23.36;36.59
16100;BME280;8154;50.830;12.082;2023-04-26T18:35:21;99595.63;;;23.38;36.80
16100;BME280;8154;50.830;12.082;2023-04-26T18:37:47;99598.09;;;23.39;36.34
16100;BME280;8154;50.830;12.082;2023-04-26T18:40:13;99605.31;;;23.39;36.61
16100;BME280;8154;50.830;12.082;2023-04-26T18:42:39;99596.41;;;23.32;36.96
16100;BME280;8154;50.830;12.082;2023-04-26T18:45:08;99598.28;;;23.17;36.82
16100;BME280;8154;50.830;12.082;2023-04-26T18:47:35;99601.31;;;23.14;37.17
16100;BME280;8154;50.830;12.082;2023-04-26T18:50:02;99601.66;;;23.25;37.17
16100;BME280;8154;50.830;12.082;2023-04-26T18:52:31;99597.81;;;23.28;37.05
16100;BME280;8154;50.830;12.082;2023-04-26T18:54:57;99599.53;;;23.21;37.21
16100;BME280;8154;50.830;12.082;2023-04-26T18:57:26;99603.63;;;23.17;37.02
16100;BME280;8154;50.830;12.082;2023-04-26T18:59:52;99606.81;;;23.27;36.58
16100;BME280;8154;50.830;12.082;2023-04-26T19:02:22;99615.72;;;23.34;36.32
16100;BME280;8154;50.830;12.082;2023-04-26T19:04:48;99612.44;;;23.17;36.89
16100;BME280;8154;50.830;12.082;2023-04-26T19:07:15;99618.41;;;23.19;36.45
16100;BME280;8154;50.830;12.082;2023-04-26T19:09:42;99613.50;;;23.37;36.06
16100;BME280;8154;50.830;12.082;2023-04-26T19:12:09;99618.63;;;23.39;35.84
16100;BME280;8154;50.830;12.082;2023-04-26T19:14:35;99616.59;;;23.41;35.80
16100;BME280;8154;50.830;12.082;2023-04-26T19:17:02;99623.41;;;23.43;35.44
16100;BME280;8154;50.830;12.082;2023-04-26T19:19:29;99627.94;;;23.28;35.85
16100;BME280;8154;50.830;12.082;2023-04-26T19:21:55;99630.81;;;23.27;35.96
16100;BME280;8154;50.830;12.082;2023-04-26T19:24:25;99634.19;;;23.35;35.56
16100;BME280;8154;50.830;12.082;2023-04-26T19:26:52;99633.28;;;23.28;35.42
16100;BME280;8154;50.830;12.082;2023-04-26T19:29:19;99630.28;;;23.31;35.45
16100;BME280;8154;50.830;12.082;2023-04-26T19:31:47;99634.50;;;23.26;35.43
16100;BME280;8154;50.830;12.082;2023-04-26T19:34:14;99636.63;;;23.16;35.47
16100;BME280;8154;50.830;12.082;2023-04-26T19:36:41;99629.13;;;23.05;35.77
16100;BME280;8154;50.830;12.082;2023-04-26T19:39:08;99630.53;;;23.22;35.66
16100;BME280;8154;50.830;12.082;2023-04-26T19:41:34;99628.03;;;23.35;35.51
16100;BME280;8154;50.830;12.082;2023-04-26T19:44:02;99635.63;;;23.38;35.56
16100;BME280;8154;50.830;12.082;2023-04-26T19:46:29;99632.97;;;23.38;36.01
16100;BME280;8154;50.830;12.082;2023-04-26T19:48:57;99629.50;;;23.23;36.38
16100;BME280;8154;50.830;12.082;2023-04-26T19:51:24;99633.22;;;23.22;36.25
16100;BME280;8154;50.830;12.082;2023-04-26T19:53:51;99635.53;;;23.25;36.61
16100;BME280;8154;50.830;12.082;2023-04-26T19:56:17;99634.50;;;23.26;36.53
16100;BME280;8154;50.830;12.082;2023-04-26T19:58:46;99640.19;;;23.23;37.08
16100;BME280;8154;50.830;12.082;2023-04-26T20:01:13;99640.47;;;23.28;36.86
16100;BME280;8154;50.830;12.082;2023-04-26T20:03:39;99635.53;;;23.25;36.96
16100;BME280;8154;50.830;12.082;2023-04-26T20:06:07;99636.69;;;23.22;37.43
16100;BME280;8154;50.830;12.082;2023-04-26T20:08:35;99633.59;;;23.19;37.59
16100;BME280;8154;50.830;12.082;2023-04-26T20:11:02;99634.41;;;23.19;37.74
16100;BME280;8154;50.830;12.082;2023-04-26T20:13:33;99634.59;;;23.18;37.60
16100;BME280;8154;50.830;12.082;2023-04-26T20:15:59;99634.19;;;23.21;37.73
16100;BME280;8154;50.830;12.082;2023-04-26T20:18:26;99627.41;;;23.18;37.88
16100;BME280;8154;50.830;12.082;2023-04-26T20:20:53;99633.13;;;23.15;37.96
16100;BME280;8154;50.830;12.082;2023-04-26T22:26:06;99665.16;;;23.01;40.62
16100;BME280;8154;50.830;12.082;2023-04-26T22:28:32;99671.78;;;23.05;40.46
16100;BME280;8154;50.830;12.082;2023-04-26T22:30:58;99671.50;;;23.00;40.42
16100;BME280;8154;50.830;12.082;2023-04-26T22:33:25;99670.66;;;22.99;40.16
16100;BME280;8154;50.830;12.082;2023-04-26T22:35:51;99672.72;;;22.97;40.11
16100;BME280;8154;50.830;12.082;2023-04-26T22:38:23;99668.19;;;22.98;39.81
16100;BME280;8154;50.830;12.082;2023-04-26T22:40:50;99668.38;;;22.96;40.01
16100;BME280;8154;50.830;12.082;2023-04-26T22:43:16;99669.88;;;22.99;39.95
16100;BME280;8154;50.830;12.082;2023-04-26T22:45:43;99669.41;;;22.95;39.58
16100;BME280;8154;50.830;12.082;2023-04-26T22:48:09;99678.25;;;22.96;39.77